Time;durP1;ratioP1;P1;durP2;ratioP2;P2;SDS_P1;SDS_P2;PMS_P1;PMS_P2;Temp;Humidity;BMP_temperature;BMP_pressure;BME280_temperature;BME280_humidity;BME280_pressure;Samples;Min_cycle;Max_cycle;Signal;HPM_P1;HPM_P2
2023/08/06 00:02:07;;;;;;;9.98;5.30;;;;;;;;;;4973270;28;20035;-76
2023/08/06 00:04:32;;;;;;;13.35;6.28;;;;;;;;;;4957238;28;20126;-75
2023/08/06 00:06:58;;;;;;;7.78;4.18;;;;;;;;;;4957213;28;20037;-75
2023/08/06 00:09:23;;;;;;;7.40;3.65;;;;;;;;;;4957384;28;20118;-74
2023/08/06 00:11:49;;;;;;;6.75;4.32;;;;;;;;;;4956415;28;20089;-76
2023/08/06 00:14:15;;;;;;;7.60;3.60;;;;;;;;;;4956790;28;20077;-76
2023/08/06 00:16:42;;;;;;;4.82;2.97;;;;;;;;;;4957119;28;20034;-75
2023/08/06 00:19:08;;;;;;;5.55;3.60;;;;;;;;;;4937030;29;20031;-76
2023/08/06 00:21:34;;;;;;;5.28;3.08;;;;;;;;;;4953649;29;20031;-75
2023/08/06 00:23:59;;;;;;;5.05;2.88;;;;;;;;;;4954648;28;20024;-76
2023/08/06 00:26:25;;;;;;;5.53;3.20;;;;;;;;;;4937619;29;20483;-76
2023/08/06 00:28:51;;;;;;;6.68;3.35;;;;;;;;;;4922028;29;20491;-74
2023/08/06 00:31:16;;;;;;;8.40;3.97;;;;;;;;;;4937521;29;20031;-76
2023/08/06 00:33:42;;;;;;;6.55;3.63;;;;;;;;;;4954543;28;20530;-76
2023/08/06 00:36:07;;;;;;;6.38;3.33;;;;;;;;;;4953634;28;20509;-74
2023/08/06 00:38:33;;;;;;;6.75;3.35;;;;;;;;;;4940712;28;20038;-74
2023/08/06 00:40:59;;;;;;;9.32;4.00;;;;;;;;;;4956570;28;20398;-76
2023/08/06 00:43:24;;;;;;;6.82;3.28;;;;;;;;;;4956299;28;20121;-76
2023/08/06 00:45:50;;;;;;;6.45;3.60;;;;;;;;;;4956762;28;20393;-76
2023/08/06 00:48:16;;;;;;;6.43;3.63;;;;;;;;;;4973742;28;20030;-75
2023/08/06 00:50:42;;;;;;;8.38;3.33;;;;;;;;;;4956425;28;20106;-75
2023/08/06 00:53:07;;;;;;;5.53;3.53;;;;;;;;;;4939382;28;20037;-76
2023/08/06 00:55:33;;;;;;;6.30;3.60;;;;;;;;;;4956434;28;20063;-75
2023/08/06 00:57:59;;;;;;;5.82;3.60;;;;;;;;;;4973634;28;20504;-75
2023/08/06 01:00:25;;;;;;;5.43;3.55;;;;;;;;;;4973545;28;20035;-75
2023/08/06 01:02:51;;;;;;;6.18;3.72;;;;;;;;;;4924159;28;20457;-75
2023/08/06 01:05:17;;;;;;;5.65;3.42;;;;;;;;;;4956327;28;20026;-75
2023/08/06 01:07:43;;;;;;;8.88;4.72;;;;;;;;;;4939644;28;20133;-74
2023/08/06 01:10:15;;;;;;;7.18;3.70;;;;;;;;;;4956306;28;20426;-75
2023/08/06 01:13:17;;;;;;;6.03;4.20;;;;;;;;;;4957699;28;20121;-74
2023/08/06 01:15:45;;;;;;;11.25;4.03;;;;;;;;;;4900747;29;20489;-74
2023/08/06 01:18:11;;;;;;;6.50;4.40;;;;;;;;;;4947286;28;20071;-72
2023/08/06 01:20:37;;;;;;;6.20;3.60;;;;;;;;;;4975843;28;20026;-74
2023/08/06 01:23:02;;;;;;;6.10;3.30;;;;;;;;;;4959301;28;20110;-74
2023/08/06 01:25:33;;;;;;;4.95;3.15;;;;;;;;;;4974749;28;20034;-75
2023/08/06 01:28:01;;;;;;;5.75;3.65;;;;;;;;;;4973626;28;20054;-75
2023/08/06 01:30:30;;;;;;;5.72;3.28;;;;;;;;;;4942033;28;20139;-75
2023/08/06 01:33:00;;;;;;;8.00;3.70;;;;;;;;;;4973053;28;20038;-75
2023/08/06 01:35:29;;;;;;;7.38;3.63;;;;;;;;;;4973432;28;20060;-75
2023/08/06 01:37:58;;;;;;;5.35;3.33;;;;;;;;;;4956421;28;20486;-75
2023/08/06 01:40:26;;;;;;;7.60;3.38;;;;;;;;;;4973343;28;20478;-74
2023/08/06 01:42:52;;;;;;;7.47;3.60;;;;;;;;;;4956104;28;20023;-74
2023/08/06 01:45:18;;;;;;;7.05;3.33;;;;;;;;;;4956044;28;20033;-74
2023/08/06 01:47:43;;;;;;;7.13;3.65;;;;;;;;;;4973327;28;20023;-75
2023/08/06 01:50:09;;;;;;;5.90;2.92;;;;;;;;;;4955869;28;20026;-74
2023/08/06 01:52:34;;;;;;;6.75;3.50;;;;;;;;;;4955757;28;20035;-74
2023/08/06 01:55:00;;;;;;;5.90;2.95;;;;;;;;;;4955375;28;20027;-74
2023/08/06 01:57:26;;;;;;;4.95;3.25;;;;;;;;;;4955734;28;20030;-75
2023/08/06 01:59:51;;;;;;;6.80;3.30;;;;;;;;;;4973104;28;20566;-75
2023/08/06 02:02:17;;;;;;;7.45;3.60;;;;;;;;;;4972925;28;20661;-74
2023/08/06 02:04:42;;;;;;;6.25;3.58;;;;;;;;;;4973035;28;20474;-75
2023/08/06 02:07:08;;;;;;;4.85;3.50;;;;;;;;;;4972986;28;20478;-76
2023/08/06 02:09:35;;;;;;;6.28;3.33;;;;;;;;;;4972868;28;20027;-75
2023/08/06 02:12:00;;;;;;;8.15;3.60;;;;;;;;;;4972765;28;20517;-76
2023/08/06 02:14:27;;;;;;;5.50;3.78;;;;;;;;;;4954413;28;20138;-75
2023/08/06 02:16:53;;;;;;;5.32;3.50;;;;;;;;;;4972730;28;20546;-75
2023/08/06 02:19:18;;;;;;;5.15;3.60;;;;;;;;;;4955529;28;20034;-74
2023/08/06 02:21:44;;;;;;;9.23;3.67;;;;;;;;;;4972711;28;20039;-74
2023/08/06 02:24:09;;;;;;;5.82;4.07;;;;;;;;;;4972471;28;20078;-74
2023/08/06 02:26:35;;;;;;;6.57;3.72;;;;;;;;;;4972635;28;20046;-74
2023/08/06 02:29:00;;;;;;;6.45;3.63;;;;;;;;;;4938250;28;20113;-75
2023/08/06 02:31:26;;;;;;;8.07;3.63;;;;;;;;;;4972735;28;20030;-75
2023/08/06 02:33:51;;;;;;;8.73;4.03;;;;;;;;;;4972451;28;20023;-74
2023/08/06 02:36:17;;;;;;;6.03;3.70;;;;;;;;;;4975028;28;20035;-75
2023/08/06 02:38:42;;;;;;;7.47;4.13;;;;;;;;;;4943093;28;20042;-74
2023/08/06 02:41:08;;;;;;;6.90;3.85;;;;;;;;;;4976058;28;20405;-74
2023/08/06 02:43:34;;;;;;;6.10;3.30;;;;;;;;;;4958346;28;20034;-76
2023/08/06 02:46:00;;;;;;;6.68;3.70;;;;;;;;;;4926316;28;20031;-74
2023/08/06 02:48:26;;;;;;;6.05;3.40;;;;;;;;;;4959598;28;20067;-76
2023/08/06 02:50:52;;;;;;;5.80;3.60;;;;;;;;;;4944721;28;20039;-76
2023/08/06 02:53:18;;;;;;;9.13;3.70;;;;;;;;;;4959855;28;20031;-77
2023/08/06 02:55:50;;;;;;;6.88;3.85;;;;;;;;;;4960205;28;20034;-74
2023/08/06 02:58:22;;;;;;;6.47;3.60;;;;;;;;;;4959878;28;20034;-76
2023/08/06 03:01:03;;;;;;;9.32;4.20;;;;;;;;;;4938498;29;20514;-77
2023/08/06 03:03:33;;;;;;;7.20;4.15;;;;;;;;;;4923511;29;20031;-75
2023/08/06 03:06:01;;;;;;;6.20;4.45;;;;;;;;;;4939265;29;20059;-75
2023/08/06 03:08:35;;;;;;;9.98;4.00;;;;;;;;;;4939233;29;20038;-77
2023/08/06 03:11:01;;;;;;;9.63;4.45;;;;;;;;;;4956375;29;20039;-76
2023/08/06 03:13:28;;;;;;;6.65;3.97;;;;;;;;;;4954924;28;20102;-74
2023/08/06 03:15:57;;;;;;;6.40;3.97;;;;;;;;;;4939106;28;20031;-75
2023/08/06 03:18:25;;;;;;;7.82;3.80;;;;;;;;;;4958200;28;20039;-75
2023/08/06 03:20:51;;;;;;;7.60;3.70;;;;;;;;;;4941939;28;20035;-74
2023/08/06 03:23:17;;;;;;;7.95;4.97;;;;;;;;;;4957928;28;20026;-75
2023/08/06 03:25:43;;;;;;;8.50;5.30;;;;;;;;;;4958152;28;20463;-76
2023/08/06 03:28:09;;;;;;;7.65;4.53;;;;;;;;;;4926519;28;20118;-76
2023/08/06 03:30:35;;;;;;;7.75;3.90;;;;;;;;;;4941932;28;20051;-76
2023/08/06 03:33:01;;;;;;;11.65;5.32;;;;;;;;;;4941019;28;20027;-75
2023/08/06 03:35:26;;;;;;;6.75;4.20;;;;;;;;;;4941911;28;20041;-76
2023/08/06 03:37:52;;;;;;;8.40;4.50;;;;;;;;;;4942025;28;20057;-75
2023/08/06 03:40:18;;;;;;;6.45;4.10;;;;;;;;;;4941868;28;20130;-75
2023/08/06 03:42:43;;;;;;;6.68;4.10;;;;;;;;;;4941986;28;20288;-75
2023/08/06 03:45:09;;;;;;;8.18;4.18;;;;;;;;;;4976142;28;20038;-74
2023/08/06 03:47:35;;;;;;;6.70;4.03;;;;;;;;;;4981220;28;20033;-75
2023/08/06 03:50:01;;;;;;;5.80;3.67;;;;;;;;;;4968777;28;20081;-75
2023/08/06 03:52:26;;;;;;;7.60;4.30;;;;;;;;;;4994340;28;20065;-74
2023/08/06 03:54:52;;;;;;;7.38;4.05;;;;;;;;;;4993015;28;20042;-76
2023/08/06 03:57:18;;;;;;;10.98;3.90;;;;;;;;;;4974143;28;20054;-75
2023/08/06 03:59:43;;;;;;;8.05;4.15;;;;;;;;;;4950704;28;20034;-74
2023/08/06 04:02:09;;;;;;;6.07;3.88;;;;;;;;;;4961137;28;20035;-75
2023/08/06 04:04:34;;;;;;;8.00;5.28;;;;;;;;;;4957571;28;20027;-75
2023/08/06 04:07:00;;;;;;;7.60;4.43;;;;;;;;;;4975351;28;20030;-74
2023/08/06 04:09:27;;;;;;;8.73;4.43;;;;;;;;;;4974566;28;20545;-74
2023/08/06 04:11:55;;;;;;;13.52;6.13;;;;;;;;;;4941509;28;20035;-76
2023/08/06 04:14:20;;;;;;;7.70;4.57;;;;;;;;;;4974514;28;20042;-76
2023/08/06 04:16:45;;;;;;;15.75;4.85;;;;;;;;;;4974786;28;20394;-75
2023/08/06 04:19:11;;;;;;;7.90;4.15;;;;;;;;;;4941472;28;20071;-75
2023/08/06 04:21:36;;;;;;;8.65;4.20;;;;;;;;;;4973259;28;20035;-74
2023/08/06 04:24:03;;;;;;;8.27;4.57;;;;;;;;;;4956970;28;20039;-75
2023/08/06 04:26:29;;;;;;;7.35;4.47;;;;;;;;;;4974394;28;20479;-76
2023/08/06 04:28:54;;;;;;;7.07;4.43;;;;;;;;;;4941159;28;20035;-75
2023/08/06 04:31:20;;;;;;;8.05;4.88;;;;;;;;;;4974154;28;20030;-77
2023/08/06 04:33:45;;;;;;;6.63;4.07;;;;;;;;;;4956688;28;20541;-76
2023/08/06 04:36:13;;;;;;;6.22;3.90;;;;;;;;;;4957040;28;20066;-75
2023/08/06 04:38:41;;;;;;;8.13;4.20;;;;;;;;;;4940983;28;20027;-75
2023/08/06 04:41:07;;;;;;;7.97;3.58;;;;;;;;;;4956068;28;20041;-77
2023/08/06 04:43:32;;;;;;;8.93;3.35;;;;;;;;;;4940757;28;20038;-76
2023/08/06 04:45:58;;;;;;;6.82;3.47;;;;;;;;;;4940908;28;20078;-77
2023/08/06 04:48:23;;;;;;;5.60;3.33;;;;;;;;;;4973793;28;20097;-76
2023/08/06 04:50:49;;;;;;;7.82;3.70;;;;;;;;;;4973662;28;20030;-77
2023/08/06 04:53:15;;;;;;;8.60;3.28;;;;;;;;;;4973562;28;20081;-77
2023/08/06 04:55:40;;;;;;;7.15;3.58;;;;;;;;;;4956517;28;20110;-74
2023/08/06 04:58:06;;;;;;;5.30;3.20;;;;;;;;;;4972459;28;20114;-78
2023/08/06 05:00:32;;;;;;;4.88;3.30;;;;;;;;;;4973567;28;20030;-76
2023/08/06 05:02:59;;;;;;;6.18;3.33;;;;;;;;;;4973301;28;20398;-78
2023/08/06 05:05:24;;;;;;;6.85;2.95;;;;;;;;;;4973599;28;20019;-75
2023/08/06 05:07:50;;;;;;;7.28;3.15;;;;;;;;;;4973651;28;20025;-75
2023/08/06 05:10:16;;;;;;;5.20;2.83;;;;;;;;;;4973401;28;20029;-75
2023/08/06 05:12:41;;;;;;;5.63;3.17;;;;;;;;;;4973167;28;20031;-76
2023/08/06 05:15:07;;;;;;;3.90;2.85;;;;;;;;;;4972428;28;20102;-78
2023/08/06 05:17:33;;;;;;;5.40;2.80;;;;;;;;;;4973340;28;20057;-75
2023/08/06 05:19:58;;;;;;;5.22;2.90;;;;;;;;;;4956734;28;20059;-75
2023/08/06 05:22:24;;;;;;;5.63;3.33;;;;;;;;;;4974341;28;20492;-74
2023/08/06 05:24:49;;;;;;;7.43;3.00;;;;;;;;;;4925366;28;20027;-75
2023/08/06 05:27:15;;;;;;;6.80;3.10;;;;;;;;;;4957489;28;20458;-76
2023/08/06 05:29:40;;;;;;;5.57;2.85;;;;;;;;;;4973221;28;20482;-76
2023/08/06 05:32:06;;;;;;;7.93;3.30;;;;;;;;;;4973963;28;20027;-76
2023/08/06 05:34:31;;;;;;;6.65;2.75;;;;;;;;;;4955766;28;20039;-76
2023/08/06 05:36:56;;;;;;;4.70;2.97;;;;;;;;;;4973120;28;20030;-76
2023/08/06 05:39:25;;;;;;;7.70;3.03;;;;;;;;;;4972098;28;20221;-76
2023/08/06 05:41:52;;;;;;;4.05;2.53;;;;;;;;;;4973191;28;20512;-76
2023/08/06 05:44:17;;;;;;;5.32;2.80;;;;;;;;;;4972926;28;20027;-76
2023/08/06 05:46:43;;;;;;;6.88;2.45;;;;;;;;;;4973121;28;20031;-77
2023/08/06 05:49:08;;;;;;;4.93;2.78;;;;;;;;;;4973182;28;20027;-78
2023/08/06 05:51:34;;;;;;;4.72;2.50;;;;;;;;;;4973119;28;20503;-77
2023/08/06 05:53:59;;;;;;;4.43;2.75;;;;;;;;;;4972759;28;20029;-75
2023/08/06 05:56:25;;;;;;;8.05;2.40;;;;;;;;;;4955046;28;20045;-77
2023/08/06 05:58:52;;;;;;;7.57;2.40;;;;;;;;;;4955702;28;20035;-77
2023/08/06 06:01:18;;;;;;;4.17;2.23;;;;;;;;;;4972784;28;20038;-75
2023/08/06 06:03:43;;;;;;;5.82;2.22;;;;;;;;;;4972738;28;20261;-76
2023/08/06 06:06:09;;;;;;;5.18;2.20;;;;;;;;;;4955810;28;20033;-77
2023/08/06 06:08:34;;;;;;;4.60;2.40;;;;;;;;;;4972889;28;20114;-77
2023/08/06 06:11:00;;;;;;;4.95;2.17;;;;;;;;;;4957776;28;20109;-76
2023/08/06 06:13:25;;;;;;;4.32;2.13;;;;;;;;;;4958545;28;20034;-76
2023/08/06 06:15:54;;;;;;;4.00;2.25;;;;;;;;;;4959334;28;20035;-76
2023/08/06 06:18:19;;;;;;;4.85;2.10;;;;;;;;;;4959328;28;20086;-76
2023/08/06 06:20:45;;;;;;;7.88;2.58;;;;;;;;;;4959348;28;20034;-76
2023/08/06 06:23:10;;;;;;;6.63;2.13;;;;;;;;;;4977497;28;20514;-77
2023/08/06 06:25:36;;;;;;;7.13;2.40;;;;;;;;;;4978463;28;20031;-77
2023/08/06 06:28:01;;;;;;;4.22;2.20;;;;;;;;;;4978682;28;20035;-75
2023/08/06 06:30:27;;;;;;;5.32;2.28;;;;;;;;;;4946203;28;20054;-75
2023/08/06 06:32:52;;;;;;;4.15;2.08;;;;;;;;;;4979240;28;20534;-73
2023/08/06 06:35:18;;;;;;;4.78;2.30;;;;;;;;;;4979576;28;20038;-72
2023/08/06 06:37:43;;;;;;;4.30;2.22;;;;;;;;;;4980474;28;20023;-75
2023/08/06 06:40:09;;;;;;;5.95;2.05;;;;;;;;;;4977617;28;20027;-76
2023/08/06 06:42:35;;;;;;;3.78;2.00;;;;;;;;;;4977327;28;20069;-77
2023/08/06 06:45:01;;;;;;;3.95;1.65;;;;;;;;;;4936387;29;20031;-78
2023/08/06 06:47:26;;;;;;;4.50;1.45;;;;;;;;;;4939637;29;20031;-76
2023/08/06 06:49:52;;;;;;;2.67;1.40;;;;;;;;;;4908501;29;20059;-76
2023/08/06 06:52:17;;;;;;;3.47;1.63;;;;;;;;;;4956912;29;20041;-78
2023/08/06 06:54:43;;;;;;;3.17;1.50;;;;;;;;;;4957264;28;20031;-77
2023/08/06 06:57:08;;;;;;;5.10;1.85;;;;;;;;;;4940166;29;20031;-77
2023/08/06 06:59:34;;;;;;;3.83;1.48;;;;;;;;;;4956524;29;20024;-77
2023/08/06 07:01:59;;;;;;;4.55;1.50;;;;;;;;;;4956165;28;20035;-77
2023/08/06 07:04:25;;;;;;;3.58;1.55;;;;;;;;;;4955034;28;20035;-75
2023/08/06 07:06:52;;;;;;;3.47;1.60;;;;;;;;;;4938427;29;20479;-76
2023/08/06 07:09:17;;;;;;;3.42;1.50;;;;;;;;;;4939452;29;20059;-78
2023/08/06 07:11:43;;;;;;;4.55;1.50;;;;;;;;;;4956736;29;20502;-80
2023/08/06 07:14:09;;;;;;;3.13;1.35;;;;;;;;;;4923237;29;20039;-76
2023/08/06 07:16:34;;;;;;;4.60;1.50;;;;;;;;;;4956267;29;20031;-77
2023/08/06 07:19:00;;;;;;;3.33;1.35;;;;;;;;;;4941515;28;20402;-76
2023/08/06 07:21:26;;;;;;;3.15;1.70;;;;;;;;;;4958098;28;20034;-76
2023/08/06 07:23:51;;;;;;;4.70;1.70;;;;;;;;;;4975160;28;20467;-77
2023/08/06 07:26:17;;;;;;;5.97;1.60;;;;;;;;;;4958104;28;20030;-75
2023/08/06 07:28:43;;;;;;;3.47;1.50;;;;;;;;;;4975205;28;20386;-77
2023/08/06 07:31:08;;;;;;;4.45;1.45;;;;;;;;;;4958083;28;20125;-76
2023/08/06 07:33:34;;;;;;;2.58;1.40;;;;;;;;;;4957735;28;20405;-76
2023/08/06 07:36:00;;;;;;;5.07;1.75;;;;;;;;;;4974314;28;20031;-76
2023/08/06 07:38:29;;;;;;;2.80;1.30;;;;;;;;;;4975102;28;20041;-78
2023/08/06 07:40:55;;;;;;;2.58;1.45;;;;;;;;;;4941862;28;20245;-76
2023/08/06 07:43:20;;;;;;;2.83;1.38;;;;;;;;;;4957254;28;20391;-76
2023/08/06 07:45:46;;;;;;;3.17;1.40;;;;;;;;;;4957798;28;20034;-77
2023/08/06 07:48:11;;;;;;;2.78;1.55;;;;;;;;;;4958067;28;20022;-77
2023/08/06 07:50:37;;;;;;;6.47;1.67;;;;;;;;;;4958154;28;20081;-76
2023/08/06 07:53:03;;;;;;;3.63;1.73;;;;;;;;;;4975082;28;20031;-78
2023/08/06 07:55:28;;;;;;;4.30;1.90;;;;;;;;;;4942670;28;20031;-76
2023/08/06 07:57:54;;;;;;;3.03;1.80;;;;;;;;;;4958152;28;20042;-78
2023/08/06 08:00:19;;;;;;;3.10;1.50;;;;;;;;;;4977834;28;20090;-76
2023/08/06 08:02:46;;;;;;;3.63;1.50;;;;;;;;;;4974792;28;20058;-76
2023/08/06 08:05:11;;;;;;;4.05;1.50;;;;;;;;;;4974737;28;20557;-76
2023/08/06 08:07:37;;;;;;;4.45;1.38;;;;;;;;;;4973975;28;20109;-77
2023/08/06 08:10:05;;;;;;;8.43;1.70;;;;;;;;;;4957377;28;20106;-76
2023/08/06 08:12:30;;;;;;;3.10;1.70;;;;;;;;;;4957102;28;20338;-76
2023/08/06 08:14:56;;;;;;;2.17;1.25;;;;;;;;;;4957128;28;20034;-76
2023/08/06 08:17:21;;;;;;;2.70;1.23;;;;;;;;;;4974678;28;20375;-76
2023/08/06 08:19:47;;;;;;;2.05;1.30;;;;;;;;;;4957214;28;20122;-76
2023/08/06 08:22:12;;;;;;;3.90;1.30;;;;;;;;;;4957113;28;20035;-78
2023/08/06 08:24:38;;;;;;;2.50;1.40;;;;;;;;;;4956776;28;20042;-76
2023/08/06 08:27:04;;;;;;;2.85;1.38;;;;;;;;;;4957189;28;20030;-76
2023/08/06 08:29:29;;;;;;;2.35;1.20;;;;;;;;;;4925353;28;20553;-76
2023/08/06 08:31:55;;;;;;;4.35;1.40;;;;;;;;;;4956873;28;20038;-76
2023/08/06 08:34:20;;;;;;;3.72;1.20;;;;;;;;;;4973688;28;20494;-76
2023/08/06 08:36:47;;;;;;;2.70;1.58;;;;;;;;;;4974372;28;20398;-76
2023/08/06 08:39:13;;;;;;;3.83;1.80;;;;;;;;;;4974147;28;20031;-77
2023/08/06 08:41:38;;;;;;;3.20;1.40;;;;;;;;;;4956155;28;20037;-78
2023/08/06 08:44:07;;;;;;;2.85;1.48;;;;;;;;;;4940684;28;20037;-75
2023/08/06 08:46:33;;;;;;;2.40;1.40;;;;;;;;;;4956120;28;20049;-77
2023/08/06 08:48:59;;;;;;;3.22;1.48;;;;;;;;;;4957582;28;20062;-75
2023/08/06 08:51:26;;;;;;;5.25;2.45;;;;;;;;;;4957043;28;20026;-76
2023/08/06 08:53:53;;;;;;;2.75;1.30;;;;;;;;;;4957152;28;20030;-76
2023/08/06 08:56:19;;;;;;;3.13;1.60;;;;;;;;;;4958882;28;20170;-75
2023/08/06 08:58:44;;;;;;;4.68;1.70;;;;;;;;;;4942931;28;20530;-77
2023/08/06 09:01:10;;;;;;;2.28;1.40;;;;;;;;;;4959969;28;20031;-76
2023/08/06 09:03:36;;;;;;;3.22;1.45;;;;;;;;;;4980338;28;20074;-76
2023/08/06 09:06:02;;;;;;;3.10;1.60;;;;;;;;;;4982299;28;20038;-75
2023/08/06 09:08:32;;;;;;;3.35;1.52;;;;;;;;;;4978487;28;20054;-76
2023/08/06 09:10:58;;;;;;;2.97;1.70;;;;;;;;;;4959390;28;20042;-77
2023/08/06 09:13:23;;;;;;;3.90;1.60;;;;;;;;;;4957405;28;20062;-76
2023/08/06 09:15:50;;;;;;;3.38;1.73;;;;;;;;;;4940055;28;20176;-76
2023/08/06 09:18:24;;;;;;;4.85;1.80;;;;;;;;;;4974033;28;20049;-76
2023/08/06 09:20:50;;;;;;;3.80;1.75;;;;;;;;;;4973383;28;20056;-75
2023/08/06 09:23:15;;;;;;;3.65;1.73;;;;;;;;;;4956104;28;20524;-77
2023/08/06 09:25:41;;;;;;;4.75;1.67;;;;;;;;;;4973541;28;20026;-78
2023/08/06 09:28:06;;;;;;;3.58;1.75;;;;;;;;;;4973779;28;20066;-75
2023/08/06 09:30:33;;;;;;;4.07;1.52;;;;;;;;;;4956522;28;20461;-74
2023/08/06 09:33:02;;;;;;;3.08;1.75;;;;;;;;;;4955759;28;20027;-75
2023/08/06 09:35:31;;;;;;;4.22;1.45;;;;;;;;;;4956428;28;20027;-75
2023/08/06 09:38:07;;;;;;;3.78;1.38;;;;;;;;;;4973114;28;20474;-75
2023/08/06 09:40:32;;;;;;;3.47;1.90;;;;;;;;;;4973175;28;20138;-76
2023/08/06 09:42:58;;;;;;;3.38;1.88;;;;;;;;;;4972570;28;20058;-76
2023/08/06 09:45:37;;;;;;;4.68;1.98;;;;;;;;;;4974337;28;20030;-77
2023/08/06 09:48:06;;;;;;;3.05;1.90;;;;;;;;;;4977115;28;20147;-75
2023/08/06 09:50:32;;;;;;;4.30;1.70;;;;;;;;;;4942981;28;20035;-75
2023/08/06 09:52:58;;;;;;;3.42;2.10;;;;;;;;;;4976803;28;20034;-77
2023/08/06 09:55:27;;;;;;;4.28;1.95;;;;;;;;;;4959749;28;20023;-76
2023/08/06 09:57:52;;;;;;;;;;;;;;;;;;4959813;28;20121;-76
2023/08/06 10:00:18;;;;;;;2.78;1.42;;;;;;;;;;4959820;28;19910;-77
2023/08/06 10:02:46;;;;;;;4.88;1.52;;;;;;;;;;4959505;28;20039;-76
2023/08/06 10:05:12;;;;;;;2.63;1.38;;;;;;;;;;4959402;28;20386;-75
2023/08/06 10:07:39;;;;;;;4.13;1.70;;;;;;;;;;4958685;28;20038;-75
2023/08/06 10:10:05;;;;;;;3.13;1.50;;;;;;;;;;4959247;28;20549;-75
2023/08/06 10:12:42;;;;;;;2.60;1.45;;;;;;;;;;4976549;28;20026;-75
2023/08/06 10:15:13;;;;;;;5.18;1.75;;;;;;;;;;4959231;28;20026;-75
2023/08/06 10:17:40;;;;;;;2.65;1.55;;;;;;;;;;4959084;28;20437;-75
2023/08/06 10:20:07;;;;;;;3.58;1.60;;;;;;;;;;4959400;28;20034;-74
2023/08/06 10:22:33;;;;;;;5.47;1.60;;;;;;;;;;4959006;28;20410;-76
2023/08/06 10:25:07;;;;;;;5.07;2.17;;;;;;;;;;4975695;28;20023;-74
2023/08/06 10:27:33;;;;;;;5.47;1.45;;;;;;;;;;4959000;28;20496;-75
2023/08/06 10:30:18;;;;;;;3.50;1.33;;;;;;;;;;4975751;28;20031;-75
2023/08/06 10:32:50;;;;;;;3.33;1.48;;;;;;;;;;4976220;28;20062;-77
2023/08/06 10:35:36;;;;;;;2.72;1.50;;;;;;;;;;4958977;28;20034;-76
2023/08/06 10:38:07;;;;;;;4.68;1.73;;;;;;;;;;4942550;28;20043;-74
2023/08/06 10:40:33;;;;;;;3.13;1.60;;;;;;;;;;4975862;28;20087;-76
2023/08/06 10:42:59;;;;;;;5.13;1.88;;;;;;;;;;4975003;28;20038;-75
2023/08/06 10:45:28;;;;;;;2.45;1.30;;;;;;;;;;4942851;28;20031;-76
2023/08/06 10:47:54;;;;;;;3.40;1.52;;;;;;;;;;4942575;28;20350;-75
2023/08/06 10:50:20;;;;;;;3.28;1.40;;;;;;;;;;4958678;28;20030;-76
2023/08/06 10:52:46;;;;;;;8.30;1.65;;;;;;;;;;4958219;28;20034;-75
2023/08/06 10:55:12;;;;;;;4.88;1.75;;;;;;;;;;4942768;28;20039;-74
2023/08/06 10:57:38;;;;;;;4.53;1.55;;;;;;;;;;4957345;28;20113;-76
2023/08/06 11:00:08;;;;;;;5.10;1.90;;;;;;;;;;4958766;28;20106;-74
2023/08/06 11:02:35;;;;;;;3.17;1.45;;;;;;;;;;4958293;28;20038;-74
2023/08/06 11:05:04;;;;;;;4.60;1.65;;;;;;;;;;4958357;28;20490;-74
2023/08/06 11:07:30;;;;;;;4.25;1.50;;;;;;;;;;4958416;28;20058;-75
2023/08/06 11:10:01;;;;;;;2.25;1.58;;;;;;;;;;4958884;28;20069;-75
2023/08/06 11:12:27;;;;;;;3.08;1.70;;;;;;;;;;4975560;28;20038;-76
2023/08/06 11:14:53;;;;;;;3.33;1.60;;;;;;;;;;4974882;28;20034;-75
2023/08/06 11:17:18;;;;;;;7.53;2.30;;;;;;;;;;4975870;28;20073;-75
2023/08/06 11:19:44;;;;;;;4.07;1.60;;;;;;;;;;4975588;28;20058;-76
2023/08/06 11:22:10;;;;;;;5.32;1.75;;;;;;;;;;4975632;28;20035;-76
2023/08/06 11:24:37;;;;;;;5.43;2.00;;;;;;;;;;4976064;28;20511;-76
2023/08/06 11:27:02;;;;;;;5.22;1.77;;;;;;;;;;4959453;28;20026;-75
2023/08/06 11:29:28;;;;;;;4.70;2.40;;;;;;;;;;4942833;28;20623;-76
2023/08/06 11:31:53;;;;;;;2.80;1.63;;;;;;;;;;4958108;28;20033;-75
2023/08/06 11:34:19;;;;;;;5.80;2.83;;;;;;;;;;4959203;28;20082;-74
2023/08/06 11:36:44;;;;;;;5.30;2.00;;;;;;;;;;4977485;28;20524;-76
2023/08/06 11:39:10;;;;;;;2.85;1.60;;;;;;;;;;4946418;28;20133;-76
2023/08/06 11:41:37;;;;;;;4.50;2.00;;;;;;;;;;4979863;28;20030;-73
2023/08/06 11:44:03;;;;;;;5.13;2.00;;;;;;;;;;4962069;28;20039;-75
2023/08/06 11:46:29;;;;;;;5.13;2.13;;;;;;;;;;4948128;28;20041;-73
2023/08/06 11:48:58;;;;;;;8.43;2.13;;;;;;;;;;4961855;28;20404;-75
2023/08/06 11:51:26;;;;;;;2.90;1.50;;;;;;;;;;4961268;28;20023;-73
2023/08/06 11:53:56;;;;;;;4.80;1.90;;;;;;;;;;4958453;28;20078;-75
2023/08/06 11:56:21;;;;;;;3.70;2.13;;;;;;;;;;4976084;28;20162;-75
2023/08/06 11:58:47;;;;;;;3.75;1.98;;;;;;;;;;4975102;28;20252;-75
2023/08/06 12:01:13;;;;;;;3.70;1.65;;;;;;;;;;4957659;28;20045;-74
2023/08/06 12:03:39;;;;;;;3.22;1.40;;;;;;;;;;4957483;28;20030;-76
2023/08/06 12:06:05;;;;;;;4.78;1.83;;;;;;;;;;4974561;28;20027;-75
2023/08/06 12:08:30;;;;;;;3.88;1.50;;;;;;;;;;4974214;28;20022;-75
2023/08/06 12:10:56;;;;;;;3.80;1.45;;;;;;;;;;4941852;28;20455;-74
2023/08/06 12:13:21;;;;;;;4.82;1.67;;;;;;;;;;4975164;28;20121;-76
2023/08/06 12:15:47;;;;;;;3.05;1.42;;;;;;;;;;4974968;28;20062;-74
2023/08/06 12:18:12;;;;;;;2.28;1.40;;;;;;;;;;4958511;28;20062;-75
2023/08/06 12:20:38;;;;;;;4.80;1.70;;;;;;;;;;4978024;28;20066;-74
2023/08/06 12:23:04;;;;;;;3.38;1.42;;;;;;;;;;4956925;28;20085;-76
2023/08/06 12:25:29;;;;;;;6.38;2.85;;;;;;;;;;4956981;28;20027;-76
2023/08/06 12:27:55;;;;;;;4.43;1.50;;;;;;;;;;4974264;28;20031;-74
2023/08/06 12:30:20;;;;;;;3.38;1.60;;;;;;;;;;4974236;28;20030;-75
2023/08/06 12:32:46;;;;;;;2.88;1.15;;;;;;;;;;4973883;28;20038;-75
2023/08/06 12:35:11;;;;;;;2.53;1.25;;;;;;;;;;4974057;28;20030;-76
2023/08/06 12:37:40;;;;;;;2.90;1.45;;;;;;;;;;4956886;28;20030;-75
2023/08/06 12:40:05;;;;;;;;;;;;;;;;;;4956420;28;20038;-75
2023/08/06 12:42:31;;;;;;;3.53;1.20;;;;;;;;;;4940355;28;19914;-76
2023/08/06 12:44:56;;;;;;;2.33;1.17;;;;;;;;;;4956577;28;20038;-76
2023/08/06 12:47:22;;;;;;;3.65;1.42;;;;;;;;;;4956575;28;20034;-77
2023/08/06 12:49:49;;;;;;;3.25;1.45;;;;;;;;;;4973710;28;20037;-74
2023/08/06 12:52:15;;;;;;;5.18;1.48;;;;;;;;;;4956680;28;20039;-75
2023/08/06 12:54:41;;;;;;;3.22;1.50;;;;;;;;;;4956218;28;20475;-74
2023/08/06 12:57:06;;;;;;;3.78;1.90;;;;;;;;;;4974070;28;20058;-74
2023/08/06 12:59:36;;;;;;;3.17;1.40;;;;;;;;;;4956584;28;20035;-76
2023/08/06 13:02:02;;;;;;;2.53;1.23;;;;;;;;;;4973465;28;20093;-75
2023/08/06 13:04:27;;;;;;;3.50;1.60;;;;;;;;;;4956191;28;20446;-75
2023/08/06 13:06:53;;;;;;;2.08;1.15;;;;;;;;;;4956352;28;20030;-75
2023/08/06 13:09:19;;;;;;;2.25;1.23;;;;;;;;;;4973520;28;20065;-75
2023/08/06 13:11:49;;;;;;;2.80;1.50;;;;;;;;;;4972925;28;20031;-74
2023/08/06 13:14:16;;;;;;;3.67;1.40;;;;;;;;;;4956221;28;20035;-74
2023/08/06 13:16:42;;;;;;;5.22;1.48;;;;;;;;;;4973338;28;20371;-74
2023/08/06 13:19:08;;;;;;;2.22;1.30;;;;;;;;;;4973441;28;20033;-74
2023/08/06 13:21:35;;;;;;;2.85;1.33;;;;;;;;;;4956445;28;20027;-75
2023/08/06 13:24:02;;;;;;;3.17;1.23;;;;;;;;;;4955861;28;20070;-75
2023/08/06 13:26:28;;;;;;;3.78;1.63;;;;;;;;;;4956227;28;20031;-75
2023/08/06 13:28:54;;;;;;;2.40;1.30;;;;;;;;;;4972913;28;20027;-76
2023/08/06 13:31:20;;;;;;;2.83;1.23;;;;;;;;;;4955922;28;20370;-76
2023/08/06 13:33:45;;;;;;;3.10;1.45;;;;;;;;;;4955949;28;20097;-76
2023/08/06 13:36:11;;;;;;;4.07;1.40;;;;;;;;;;4973074;28;20113;-73
2023/08/06 13:38:36;;;;;;;3.38;1.50;;;;;;;;;;4956074;28;20043;-74
2023/08/06 13:41:02;;;;;;;4.47;1.52;;;;;;;;;;4972950;28;20106;-76
2023/08/06 13:43:27;;;;;;;5.00;1.40;;;;;;;;;;4954889;28;20035;-73
2023/08/06 13:45:53;;;;;;;3.00;1.40;;;;;;;;;;4973164;28;20027;-75
2023/08/06 13:48:19;;;;;;;6.40;1.35;;;;;;;;;;4973391;28;20030;-74
2023/08/06 13:50:44;;;;;;;2.90;1.33;;;;;;;;;;4973042;28;20490;-75
2023/08/06 13:53:10;;;;;;;3.95;1.20;;;;;;;;;;4972985;28;20023;-75
2023/08/06 13:55:35;;;;;;;4.32;1.38;;;;;;;;;;4956216;28;20413;-73
2023/08/06 13:58:01;;;;;;;2.03;1.10;;;;;;;;;;4956152;28;20045;-74
2023/08/06 14:00:26;;;;;;;1.95;1.10;;;;;;;;;;4972617;28;20023;-76
2023/08/06 14:02:52;;;;;;;3.25;1.38;;;;;;;;;;4955685;28;20039;-75
2023/08/06 14:05:17;;;;;;;2.47;1.27;;;;;;;;;;4956217;28;20019;-76
2023/08/06 14:07:43;;;;;;;3.08;1.20;;;;;;;;;;4973361;28;20027;-76
2023/08/06 14:10:09;;;;;;;2.00;0.80;;;;;;;;;;4973610;28;20023;-75
2023/08/06 14:12:34;;;;;;;2.08;1.00;;;;;;;;;;4941763;28;20035;-76
2023/08/06 14:15:01;;;;;;;3.35;1.05;;;;;;;;;;4985229;28;20030;-76
2023/08/06 14:17:27;;;;;;;4.75;0.90;;;;;;;;;;4991992;28;20030;-75
2023/08/06 14:19:52;;;;;;;3.35;1.25;;;;;;;;;;4976295;28;20054;-75
2023/08/06 14:22:18;;;;;;;3.28;1.02;;;;;;;;;;4974133;28;20045;-74
2023/08/06 14:24:44;;;;;;;2.10;1.15;;;;;;;;;;4992193;28;20027;-75
2023/08/06 14:27:09;;;;;;;2.60;1.15;;;;;;;;;;4984732;28;20086;-75
2023/08/06 14:29:35;;;;;;;4.63;1.20;;;;;;;;;;4958320;28;20616;-76
2023/08/06 14:32:00;;;;;;;2.45;1.25;;;;;;;;;;4976646;28;20102;-76
2023/08/06 14:34:27;;;;;;;2.38;1.10;;;;;;;;;;4958956;28;20066;-76
2023/08/06 14:36:52;;;;;;;2.67;1.25;;;;;;;;;;4977065;28;20027;-76
2023/08/06 14:39:18;;;;;;;1.70;0.88;;;;;;;;;;4959764;28;20026;-75